Time;durP1;ratioP1;P1;durP2;ratioP2;P2;SDS_P1;SDS_P2;PMS_P1;PMS_P2;Temp;Humidity;BMP_temperature;BMP_pressure;BME280_temperature;BME280_humidity;BME280_pressure;Samples;Min_cycle;Max_cycle;Signal;HPM_P1;HPM_P2
2023/06/11 00:05:15;;;;;;;13.50;12.30;;;;;;;16.19;72.47;98805.67;435192;1257;96502;-43
2023/06/11 00:15:22;;;;;;;12.40;11.20;;;;;;;16.19;72.32;98807.65;435086;1259;96127;-43
2023/06/11 00:25:32;;;;;;;15.00;11.90;;;;;;;16.07;72.58;98811.07;434978;1257;108618;-42
2023/06/11 00:35:37;;;;;;;17.90;14.90;;;;;;;15.93;72.76;98815.92;435063;1254;96120;-43
2023/06/11 00:55:51;;;;;;;12.80;11.50;;;;;;;15.72;72.86;98815.87;435257;1257;108887;-42
2023/06/11 01:16:13;;;;;;;13.40;12.00;;;;;;;15.52;73.31;98813.85;435326;1256;108715;-41
2023/06/11 01:26:19;;;;;;;12.20;10.90;;;;;;;15.36;73.43;98813.84;435036;1256;107628;-42
2023/06/11 01:36:29;;;;;;;12.30;10.10;;;;;;;15.05;73.42;98825.70;435108;1254;96130;-41
2023/06/11 01:46:37;;;;;;;15.50;13.10;;;;;;;14.70;73.48;98828.57;435073;1253;108809;-43
2023/06/11 02:16:57;;;;;;;17.10;13.20;;;;;;;13.84;74.48;98848.28;435102;1257;110052;-43
2023/06/11 02:27:05;;;;;;;17.10;13.10;;;;;;;13.70;74.93;98855.05;435138;1256;108564;-42
2023/06/11 02:37:12;;;;;;;20.30;15.30;;;;;;;13.62;75.11;98860.29;435268;1257;96505;-41
2023/06/11 02:47:19;;;;;;;21.20;14.00;;;;;;;13.66;75.60;98871.77;435043;1257;107871;-44
2023/06/11 02:57:26;;;;;;;17.40;14.20;;;;;;;13.77;75.89;98873.44;435100;1257;96137;-42
2023/06/11 03:07:33;;;;;;;15.20;13.60;;;;;;;13.89;75.99;98874.65;435142;1258;108769;-42
2023/06/11 03:17:40;;;;;;;20.80;15.40;;;;;;;14.61;75.97;98881.60;435177;1253;108810;-42
2023/06/11 03:27:48;;;;;;;17.40;15.10;;;;;;;16.09;75.08;98884.61;434691;1253;766037;-42
2023/06/11 03:37:55;;;;;;;18.40;14.90;;;;;;;17.43;74.14;98885.20;435349;1253;96158;-43
2023/06/11 03:48:04;;;;;;;15.50;13.90;;;;;;;18.76;72.82;98889.58;435132;1256;109350;-42
2023/06/11 04:08:18;;;;;;;14.40;13.00;;;;;;;20.07;70.37;98899.52;435244;1255;95522;-43
2023/06/11 04:18:25;;;;;;;17.10;14.40;;;;;;;20.30;70.01;98902.21;435223;1252;95690;-42
2023/06/11 04:28:33;;;;;;;16.10;14.20;;;;;;;20.42;69.08;98899.42;435329;1256;108610;-42
2023/06/11 04:38:44;;;;;;;;;;;;;;;20.33;68.54;98899.20;435178;1256;108682;-42
2023/06/11 04:48:53;;;;;;;18.00;13.80;;;;;;;20.17;68.32;98909.77;435225;1256;95771;-43
2023/06/11 04:59:01;;;;;;;16.40;14.80;;;;;;;20.17;67.48;98912.95;435090;1255;95300;-47
2023/06/11 05:09:08;;;;;;;17.40;15.70;;;;;;;18.75;67.56;98927.10;435161;1256;107266;-42
2023/06/11 05:19:15;;;;;;;17.80;14.80;;;;;;;17.81;69.34;98928.98;435110;1254;108310;-43
2023/06/11 05:29:21;;;;;;;17.50;13.60;;;;;;;17.40;70.56;98940.60;435114;1252;95793;-41
2023/06/11 05:39:28;;;;;;;17.90;14.40;;;;;;;17.07;71.48;98954.88;435389;1252;109256;-42
2023/06/11 05:49:36;;;;;;;17.30;13.90;;;;;;;17.11;72.40;98959.33;435120;1254;108016;-42
2023/06/11 05:59:43;;;;;;;18.10;13.90;;;;;;;17.47;72.54;98964.89;434968;1256;95761;-43
2023/06/11 06:09:50;;;;;;;13.80;11.70;;;;;;;18.36;72.10;98964.03;435237;1253;96507;-43
2023/06/11 06:19:57;;;;;;;12.50;11.30;;;;;;;19.18;70.73;98972.02;435171;1253;108737;-43
2023/06/11 06:30:05;;;;;;;16.10;11.90;;;;;;;19.73;69.63;98972.81;435096;1255;96140;-42
2023/06/11 06:50:19;;;;;;;11.90;10.00;;;;;;;19.73;67.15;98985.13;435161;1256;108575;-43
2023/06/11 07:00:26;;;;;;;13.00;11.80;;;;;;;20.50;66.51;98988.40;435139;1253;108048;-42
2023/06/11 07:10:34;;;;;;;15.20;10.30;;;;;;;20.25;65.73;98993.90;435160;1252;95437;-42
2023/06/11 07:20:41;;;;;;;12.50;9.50;;;;;;;20.25;64.47;99002.59;435212;1255;108225;-42
2023/06/11 07:40:54;;;;;;;10.20;8.60;;;;;;;20.11;62.99;98996.13;435224;1255;95563;-43
2023/06/11 07:51:01;;;;;;;10.80;7.90;;;;;;;20.12;62.07;98996.23;435225;1255;96202;-43
2023/06/11 08:01:07;;;;;;;12.30;6.90;;;;;;;20.26;60.05;98995.92;435260;1255;110297;-46
2023/06/11 08:11:14;;;;;;;8.30;6.80;;;;;;;20.38;58.49;98993.78;435210;1253;108182;-42
2023/06/11 08:21:20;;;;;;;9.40;6.30;;;;;;;19.93;58.11;98996.67;435412;1252;96632;-44
2023/06/11 08:31:28;;;;;;;7.00;5.40;;;;;;;20.17;55.85;99001.43;435105;1256;110158;-44
2023/06/11 08:41:36;;;;;;;9.80;4.80;;;;;;;19.88;53.72;99001.80;435290;1255;109038;-44
2023/06/11 08:51:41;;;;;;;7.50;5.60;;;;;;;20.68;52.84;98994.10;435217;1252;97963;-42
2023/06/11 09:11:55;;;;;;;7.00;4.20;;;;;;;21.14;49.73;98972.89;435183;1251;108039;-43
2023/06/11 09:22:02;;;;;;;;;;;;;;;21.29;48.42;98969.46;435152;1253;96601;-43
2023/06/11 09:32:11;;;;;;;5.20;4.20;;;;;;;21.43;47.21;98961.78;435333;1255;111015;-44
2023/06/11 09:42:39;;;;;;;5.80;4.00;;;;;;;21.27;45.13;98970.34;435096;1252;108440;-43
2023/06/11 09:52:48;;;;;;;6.10;4.00;;;;;;;21.32;44.78;98968.25;435220;1253;97888;-42
2023/06/11 10:13:04;;;;;;;7.70;4.20;;;;;;;21.76;44.61;98966.75;435105;1253;108649;-42
2023/06/11 10:23:14;;;;;;;7.70;4.40;;;;;;;21.88;44.62;98971.98;435269;1251;97462;-44
2023/06/11 10:33:20;;;;;;;6.20;4.90;;;;;;;21.99;45.25;98967.42;435100;1252;111596;-43
2023/06/11 10:43:31;;;;;;;11.60;5.70;;;;;;;21.94;45.19;98963.69;435136;1253;107619;-41
2023/06/11 10:53:42;;;;;;;6.60;4.30;;;;;;;22.09;45.44;98961.83;435140;1252;97474;-43
2023/06/11 11:03:48;;;;;;;7.20;5.00;;;;;;;21.83;45.36;98959.14;435167;1255;110902;-42
2023/06/11 11:13:58;;;;;;;6.40;4.70;;;;;;;21.97;44.91;98958.59;435110;1253;108322;-42
2023/06/11 11:34:18;;;;;;;5.90;4.70;;;;;;;22.24;44.96;98946.64;435130;1256;109729;-43
2023/06/11 11:54:31;;;;;;;6.80;5.30;;;;;;;22.66;44.52;98945.98;435162;1256;97868;-43
2023/06/11 12:04:38;;;;;;;6.20;4.70;;;;;;;22.68;44.05;98945.57;435103;1255;109996;-43
2023/06/11 12:14:45;;;;;;;5.70;4.50;;;;;;;22.67;43.56;98946.06;435082;1252;107565;-42
2023/06/11 12:24:52;;;;;;;6.70;4.70;;;;;;;22.60;43.38;98945.56;435126;1256;97890;-43
2023/06/11 12:34:59;;;;;;;7.60;5.70;;;;;;;22.64;43.78;98932.23;435178;1255;108677;-43
2023/06/11 12:45:03;;;;;;;6.10;4.80;;;;;;;23.02;43.33;98926.53;435032;1253;97940;-44
2023/06/11 12:55:11;;;;;;;10.50;5.20;;;;;;;22.72;43.20;98931.67;435234;1255;110822;-44
2023/06/11 13:05:19;;;;;;;7.10;5.30;;;;;;;22.33;43.35;98935.15;435215;1253;107601;-42
2023/06/11 13:15:26;;;;;;;5.80;4.60;;;;;;;22.53;43.20;98926.02;435035;1253;97896;-41
2023/06/11 13:25:36;;;;;;;8.70;4.50;;;;;;;22.88;43.14;98923.27;435100;1255;110799;-43
2023/06/11 13:35:44;;;;;;;10.10;5.60;;;;;;;22.63;42.75;98927.88;435085;1253;108765;-43
2023/06/11 13:45:53;;;;;;;8.40;5.00;;;;;;;22.35;43.08;98919.87;435095;1253;97873;-44
2023/06/11 13:56:00;;;;;;;6.90;4.50;;;;;;;22.43;42.40;98924.02;435013;1255;109721;-44
2023/06/11 14:06:07;;;;;;;4.80;4.40;;;;;;;22.44;41.99;98920.77;435216;1253;107903;-43
2023/06/11 14:16:15;;;;;;;5.50;4.00;;;;;;;22.57;41.78;98919.54;435042;1255;97747;-43
2023/06/11 14:26:20;;;;;;;;;;;;;;;22.59;41.42;98912.20;435126;1256;110109;-42
2023/06/11 14:36:28;;;;;;;5.30;4.40;;;;;;;22.24;41.41;98927.73;435057;1252;109432;-43
2023/06/11 14:46:34;;;;;;;;;;;;;;;22.46;42.04;98920.67;435322;1254;115579;-45
2023/06/11 14:56:43;;;;;;;4.70;4.20;;;;;;;22.28;41.71;98922.83;435161;1253;107104;-43
2023/06/11 15:06:50;;;;;;;8.70;4.20;;;;;;;22.26;41.19;98918.88;434969;1253;96621;-42
2023/06/11 15:16:58;;;;;;;6.10;4.00;;;;;;;22.23;40.87;98910.73;434705;1256;110240;-44
2023/06/11 15:27:06;;;;;;;4.90;4.10;;;;;;;22.32;41.48;98910.08;434271;1256;462770;-42
2023/06/11 15:37:14;;;;;;;7.10;4.00;;;;;;;22.31;41.32;98904.77;434732;1256;98330;-44
2023/06/11 15:47:20;;;;;;;;;;;;;;;22.29;40.96;98902.00;434663;1258;109692;-43
2023/06/11 15:57:28;;;;;;;5.90;4.70;;;;;;;22.25;40.71;98907.80;434798;1259;107754;-43
2023/06/11 16:07:35;;;;;;;4.30;3.90;;;;;;;21.87;40.53;98905.13;434487;1258;97884;-43
2023/06/11 16:17:42;;;;;;;7.30;3.90;;;;;;;21.69;40.79;98898.13;434716;1258;110420;-45
2023/06/11 16:27:53;;;;;;;6.00;4.00;;;;;;;21.68;40.65;98898.89;434622;1258;108786;-43
2023/06/11 16:38:00;;;;;;;5.50;4.10;;;;;;;21.63;40.84;98897.74;434722;1258;97909;-42
2023/06/11 16:48:07;;;;;;;6.70;4.00;;;;;;;21.48;40.64;98898.91;434425;1253;110706;-44
2023/06/11 16:58:14;;;;;;;7.80;3.80;;;;;;;21.31;40.87;98897.91;434524;1257;107026;-44
2023/06/11 17:08:21;;;;;;;8.80;4.80;;;;;;;21.17;40.94;98908.40;434530;1254;97722;-44
2023/06/11 17:18:28;;;;;;;7.70;4.00;;;;;;;21.03;41.37;98907.54;434593;1256;109832;-43
2023/06/11 17:28:35;;;;;;;10.20;4.60;;;;;;;20.91;41.66;98907.34;434385;1254;109294;-42
2023/06/11 17:38:42;;;;;;;5.90;3.60;;;;;;;20.73;41.97;98912.19;434721;1256;97877;-43
2023/06/11 17:48:50;;;;;;;4.90;4.00;;;;;;;20.55;42.50;98912.26;434351;1254;108518;-43
2023/06/11 17:58:57;;;;;;;6.60;4.30;;;;;;;20.37;43.09;98915.31;435356;1263;97884;-43
2023/06/11 18:09:03;;;;;;;6.40;4.60;;;;;;;20.17;43.68;98918.79;435406;1251;109505;-43
2023/06/11 18:19:11;;;;;;;11.80;4.90;;;;;;;19.91;44.20;98922.71;435242;1263;108242;-43
2023/06/11 18:29:18;;;;;;;9.60;4.60;;;;;;;19.62;44.74;98925.17;435385;1249;97091;-41
2023/06/11 18:39:25;;;;;;;9.00;4.70;;;;;;;19.32;45.41;98931.39;435341;1251;109670;-42
2023/06/11 18:49:32;;;;;;;6.10;4.60;;;;;;;19.01;46.19;98946.16;435508;1250;107256;-42
2023/06/11 18:59:40;;;;;;;7.50;4.70;;;;;;;18.73;46.99;98951.77;435359;1254;97874;-42
2023/06/11 19:09:46;;;;;;;6.60;4.50;;;;;;;18.51;47.77;98960.36;435421;1253;110437;-44
2023/06/11 19:19:53;;;;;;;5.70;5.00;;;;;;;18.34;48.33;98967.10;435269;1260;109173;-41
2023/06/11 19:30:00;;;;;;;5.60;5.10;;;;;;;18.17;49.04;98977.45;435280;1252;97867;-43
2023/06/11 19:40:10;;;;;;;10.30;5.00;;;;;;;17.98;49.64;98986.85;435580;1251;110835;-42
2023/06/11 19:50:22;;;;;;;6.70;5.60;;;;;;;17.82;50.79;98998.36;435415;1251;109890;-42
2023/06/11 20:00:28;;;;;;;7.70;5.10;;;;;;;17.58;51.54;98997.15;435436;1251;98520;-42
2023/06/11 20:20:44;;;;;;;8.70;5.30;;;;;;;17.21;53.22;99008.78;435426;1251;107887;-42
2023/06/11 20:30:53;;;;;;;9.10;5.40;;;;;;;16.99;54.13;99014.16;435348;1254;96658;-43
2023/06/11 20:41:00;;;;;;;8.90;4.60;;;;;;;16.84;54.75;99019.40;435353;1251;111109;-43
2023/06/11 20:51:07;;;;;;;8.90;4.80;;;;;;;16.67;55.30;99021.33;435181;1263;108446;-43
2023/06/11 21:01:15;;;;;;;8.00;4.60;;;;;;;16.52;56.07;99029.55;435121;1255;97906;-44
2023/06/11 21:11:23;;;;;;;5.90;5.10;;;;;;;16.42;56.58;99041.67;435342;1251;106794;-43
2023/06/11 21:21:30;;;;;;;8.90;5.70;;;;;;;16.29;57.08;99041.64;435341;1251;97483;-42
2023/06/11 21:31:39;;;;;;;6.00;5.10;;;;;;;16.06;57.69;99044.14;435387;1253;110350;-43
2023/06/11 21:41:45;;;;;;;;;;;;;;;15.99;57.97;99045.04;435463;1254;106945;-42
2023/06/11 22:01:59;;;;;;;5.20;4.50;;;;;;;15.68;59.10;99043.97;435381;1250;109952;-42
2023/06/11 22:12:08;;;;;;;7.80;5.30;;;;;;;15.53;59.41;99045.41;435119;1251;108647;-41
2023/06/11 22:32:21;;;;;;;8.00;4.90;;;;;;;15.24;60.45;99052.93;435301;1253;108578;-42
2023/06/11 22:42:28;;;;;;;10.30;5.10;;;;;;;15.18;61.11;99049.40;435317;1251;97902;-42
2023/06/11 23:02:44;;;;;;;5.90;5.10;;;;;;;15.01;61.97;99043.60;435254;1254;108530;-42
2023/06/11 23:12:52;;;;;;;9.20;5.90;;;;;;;14.89;62.17;99042.44;435223;1255;97906;-42
2023/06/11 23:23:04;;;;;;;7.10;5.30;;;;;;;14.75;62.54;99039.55;435380;1254;109516;-45
2023/06/11 23:43:18;;;;;;;5.70;5.20;;;;;;;14.37;63.69;99040.48;435378;1250;97900;-43
2023/06/11 23:53:26;;;;;;;12.20;5.70;;;;;;;14.15;64.08;99034.72;435370;1254;110507;-42
